sensor_id;sensor_type;location;lat;lon;timestamp;temperature;humidity
15930;DHT22;8064;51.142;4.780;2023-02-03T00:01:46;10.20;99.90
15930;DHT22;8064;51.142;4.780;2023-02-03T00:04:12;10.20;99.90
15930;DHT22;8064;51.142;4.780;2023-02-03T00:06:38;10.20;99.90
15930;DHT22;8064;51.142;4.780;2023-02-03T00:09:04;10.20;99.90
15930;DHT22;8064;51.142;4.780;2023-02-03T00:11:30;10.20;99.90
15930;DHT22;8064;51.142;4.780;2023-02-03T00:13:56;10.20;99.90
15930;DHT22;8064;51.142;4.780;2023-02-03T00:16:22;10.20;99.90
15930;DHT22;8064;51.142;4.780;2023-02-03T00:18:48;10.20;99.90
15930;DHT22;8064;51.142;4.780;2023-02-03T00:21:14;10.20;99.90
15930;DHT22;8064;51.142;4.780;2023-02-03T00:23:40;10.20;99.90
15930;DHT22;8064;51.142;4.780;2023-02-03T00:26:08;10.20;99.90
15930;DHT22;8064;51.142;4.780;2023-02-03T00:28:34;10.20;99.90
15930;DHT22;8064;51.142;4.780;2023-02-03T00:30:59;10.20;99.90
15930;DHT22;8064;51.142;4.780;2023-02-03T00:33:25;10.20;99.90
15930;DHT22;8064;51.142;4.780;2023-02-03T00:35:51;10.20;99.90
15930;DHT22;8064;51.142;4.780;2023-02-03T00:38:17;10.30;99.90
15930;DHT22;8064;51.142;4.780;2023-02-03T00:40:50;10.30;99.90
15930;DHT22;8064;51.142;4.780;2023-02-03T00:43:15;10.30;99.90
15930;DHT22;8064;51.142;4.780;2023-02-03T00:45:41;10.30;99.90
15930;DHT22;8064;51.142;4.780;2023-02-03T00:48:07;10.30;99.90
15930;DHT22;8064;51.142;4.780;2023-02-03T00:50:33;10.30;99.90
15930;DHT22;8064;51.142;4.780;2023-02-03T00:52:58;10.30;99.90
15930;DHT22;8064;51.142;4.780;2023-02-03T00:55:24;10.30;99.90
15930;DHT22;8064;51.142;4.780;2023-02-03T00:57:50;10.30;99.90
15930;DHT22;8064;51.142;4.780;2023-02-03T01:00:17;10.40;99.90
15930;DHT22;8064;51.142;4.780;2023-02-03T01:02:43;10.30;99.90
15930;DHT22;8064;51.142;4.780;2023-02-03T01:05:10;10.30;99.90
15930;DHT22;8064;51.142;4.780;2023-02-03T01:07:35;10.30;99.90
15930;DHT22;8064;51.142;4.780;2023-02-03T01:10:02;10.30;99.90
15930;DHT22;8064;51.142;4.780;2023-02-03T01:12:29;10.40;99.90
15930;DHT22;8064;51.142;4.780;2023-02-03T01:14:55;10.40;99.90
15930;DHT22;8064;51.142;4.780;2023-02-03T01:17:21;10.40;99.90
15930;DHT22;8064;51.142;4.780;2023-02-03T01:19:48;10.40;99.90
15930;DHT22;8064;51.142;4.780;2023-02-03T01:22:15;10.40;99.90
15930;DHT22;8064;51.142;4.780;2023-02-03T01:24:40;10.40;99.90
15930;DHT22;8064;51.142;4.780;2023-02-03T01:27:06;10.40;99.90
15930;DHT22;8064;51.142;4.780;2023-02-03T01:29:32;10.40;99.90
15930;DHT22;8064;51.142;4.780;2023-02-03T01:31:58;10.40;99.90
15930;DHT22;8064;51.142;4.780;2023-02-03T01:34:24;10.40;99.90
15930;DHT22;8064;51.142;4.780;2023-02-03T01:36:50;10.40;99.90
15930;DHT22;8064;51.142;4.780;2023-02-03T01:39:16;10.40;99.90
15930;DHT22;8064;51.142;4.780;2023-02-03T01:41:42;10.40;99.90
15930;DHT22;8064;51.142;4.780;2023-02-03T01:50:05;10.40;99.90
15930;DHT22;8064;51.142;4.780;2023-02-03T01:52:33;10.40;99.90
15930;DHT22;8064;51.142;4.780;2023-02-03T01:55:02;10.40;99.90
15930;DHT22;8064;51.142;4.780;2023-02-03T01:57:34;10.50;99.90
15930;DHT22;8064;51.142;4.780;2023-02-03T02:00:05;10.50;99.90
15930;DHT22;8064;51.142;4.780;2023-02-03T02:02:32;10.40;99.90
15930;DHT22;8064;51.142;4.780;2023-02-03T02:05:18;10.40;99.90
15930;DHT22;8064;51.142;4.780;2023-02-03T02:07:47;10.40;99.90
15930;DHT22;8064;51.142;4.780;2023-02-03T02:10:13;10.40;99.90
15930;DHT22;8064;51.142;4.780;2023-02-03T02:12:38;10.50;99.90
15930;DHT22;8064;51.142;4.780;2023-02-03T02:15:05;10.50;99.90
15930;DHT22;8064;51.142;4.780;2023-02-03T02:17:53;10.50;99.90
15930;DHT22;8064;51.142;4.780;2023-02-03T02:37:12;10.40;99.90
15930;DHT22;8064;51.142;4.780;2023-02-03T02:45:44;10.40;99.90
15930;DHT22;8064;51.142;4.780;2023-02-03T02:48:16;10.30;99.90
15930;DHT22;8064;51.142;4.780;2023-02-03T02:50:48;10.40;99.90
15930;DHT22;8064;51.142;4.780;2023-02-03T02:53:15;10.30;99.90
15930;DHT22;8064;51.142;4.780;2023-02-03T02:55:43;10.30;99.90
15930;DHT22;8064;51.142;4.780;2023-02-03T02:58:13;10.30;99.90
15930;DHT22;8064;51.142;4.780;2023-02-03T03:00:39;10.30;99.90
15930;DHT22;8064;51.142;4.780;2023-02-03T03:03:16;10.30;99.90
15930;DHT22;8064;51.142;4.780;2023-02-03T03:05:48;10.30;99.90
15930;DHT22;8064;51.142;4.780;2023-02-03T03:08:17;10.30;99.90
15930;DHT22;8064;51.142;4.780;2023-02-03T03:10:45;10.30;99.90
15930;DHT22;8064;51.142;4.780;2023-02-03T03:13:15;10.30;99.90
15930;DHT22;8064;51.142;4.780;2023-02-03T03:15:43;10.30;99.90
15930;DHT22;8064;51.142;4.780;2023-02-03T03:21:00;10.40;99.90
15930;DHT22;8064;51.142;4.780;2023-02-03T03:23:49;10.40;99.90
15930;DHT22;8064;51.142;4.780;2023-02-03T03:26:35;10.40;99.90
15930;DHT22;8064;51.142;4.780;2023-02-03T03:29:06;10.40;99.90
15930;DHT22;8064;51.142;4.780;2023-02-03T03:31:35;10.40;99.90
15930;DHT22;8064;51.142;4.780;2023-02-03T03:34:01;10.40;99.90
15930;DHT22;8064;51.142;4.780;2023-02-03T03:36:32;10.40;99.90
15930;DHT22;8064;51.142;4.780;2023-02-03T03:39:04;10.40;99.90
15930;DHT22;8064;51.142;4.780;2023-02-03T03:44:52;10.40;99.90
15930;DHT22;8064;51.142;4.780;2023-02-03T03:47:37;10.40;99.90
15930;DHT22;8064;51.142;4.780;2023-02-03T03:50:08;10.40;99.90
15930;DHT22;8064;51.142;4.780;2023-02-03T03:52:36;10.40;99.90
15930;DHT22;8064;51.142;4.780;2023-02-03T03:55:07;10.40;99.90
15930;DHT22;8064;51.142;4.780;2023-02-03T04:00:22;10.40;99.90
15930;DHT22;8064;51.142;4.780;2023-02-03T04:02:53;10.40;99.90
15930;DHT22;8064;51.142;4.780;2023-02-03T04:05:20;10.40;99.90
15930;DHT22;8064;51.142;4.780;2023-02-03T04:07:47;10.40;99.90
15930;DHT22;8064;51.142;4.780;2023-02-03T04:12:46;10.40;99.90
15930;DHT22;8064;51.142;4.780;2023-02-03T04:15:12;10.40;99.90
15930;DHT22;8064;51.142;4.780;2023-02-03T04:17:38;10.40;99.90
15930;DHT22;8064;51.142;4.780;2023-02-03T04:20:04;10.40;99.90
15930;DHT22;8064;51.142;4.780;2023-02-03T04:22:30;10.40;99.90
15930;DHT22;8064;51.142;4.780;2023-02-03T04:24:55;10.40;99.90
15930;DHT22;8064;51.142;4.780;2023-02-03T04:27:24;10.40;99.90
15930;DHT22;8064;51.142;4.780;2023-02-03T04:29:50;10.40;99.90
15930;DHT22;8064;51.142;4.780;2023-02-03T04:32:16;10.40;99.90
15930;DHT22;8064;51.142;4.780;2023-02-03T04:34:42;10.40;99.90
15930;DHT22;8064;51.142;4.780;2023-02-03T04:37:08;10.40;99.90
15930;DHT22;8064;51.142;4.780;2023-02-03T04:39:34;10.40;99.90
15930;DHT22;8064;51.142;4.780;2023-02-03T04:41:59;10.40;99.90
15930;DHT22;8064;51.142;4.780;2023-02-03T04:44:25;10.40;99.90
15930;DHT22;8064;51.142;4.780;2023-02-03T04:46:51;10.40;99.90
15930;DHT22;8064;51.142;4.780;2023-02-03T04:49:17;10.40;99.90
15930;DHT22;8064;51.142;4.780;2023-02-03T04:51:43;10.40;99.90
15930;DHT22;8064;51.142;4.780;2023-02-03T04:54:09;10.40;99.90
15930;DHT22;8064;51.142;4.780;2023-02-03T04:56:36;10.40;99.90
15930;DHT22;8064;51.142;4.780;2023-02-03T04:59:01;10.40;99.90
15930;DHT22;8064;51.142;4.780;2023-02-03T05:01:27;10.40;99.90
15930;DHT22;8064;51.142;4.780;2023-02-03T05:03:53;10.40;99.90
15930;DHT22;8064;51.142;4.780;2023-02-03T05:06:37;10.40;99.90
15930;DHT22;8064;51.142;4.780;2023-02-03T05:09:03;10.40;99.90
15930;DHT22;8064;51.142;4.780;2023-02-03T05:11:29;10.40;99.90
15930;DHT22;8064;51.142;4.780;2023-02-03T05:13:55;10.40;99.90
15930;DHT22;8064;51.142;4.780;2023-02-03T05:16:21;10.30;99.90
15930;DHT22;8064;51.142;4.780;2023-02-03T05:18:47;10.30;99.90
15930;DHT22;8064;51.142;4.780;2023-02-03T05:21:12;10.40;99.90
15930;DHT22;8064;51.142;4.780;2023-02-03T05:23:38;10.40;99.90
15930;DHT22;8064;51.142;4.780;2023-02-03T05:26:04;10.30;99.90
15930;DHT22;8064;51.142;4.780;2023-02-03T05:28:30;10.30;99.90
15930;DHT22;8064;51.142;4.780;2023-02-03T05:30:57;10.30;99.90
15930;DHT22;8064;51.142;4.780;2023-02-03T05:33:24;10.30;99.90
15930;DHT22;8064;51.142;4.780;2023-02-03T05:35:49;10.30;99.90
15930;DHT22;8064;51.142;4.780;2023-02-03T05:38:15;10.30;99.90
15930;DHT22;8064;51.142;4.780;2023-02-03T05:40:41;10.30;99.90
15930;DHT22;8064;51.142;4.780;2023-02-03T05:43:26;10.40;99.90
15930;DHT22;8064;51.142;4.780;2023-02-03T05:45:52;10.30;99.90
15930;DHT22;8064;51.142;4.780;2023-02-03T05:48:18;10.40;99.90
15930;DHT22;8064;51.142;4.780;2023-02-03T05:50:44;10.40;99.90
15930;DHT22;8064;51.142;4.780;2023-02-03T05:53:10;10.40;99.90
15930;DHT22;8064;51.142;4.780;2023-02-03T05:55:36;10.40;99.90
15930;DHT22;8064;51.142;4.780;2023-02-03T05:58:03;10.40;99.90
15930;DHT22;8064;51.142;4.780;2023-02-03T06:00:29;10.40;99.90
15930;DHT22;8064;51.142;4.780;2023-02-03T06:02:58;10.40;99.90
15930;DHT22;8064;51.142;4.780;2023-02-03T06:05:25;10.40;99.90
15930;DHT22;8064;51.142;4.780;2023-02-03T06:07:51;10.40;99.90
15930;DHT22;8064;51.142;4.780;2023-02-03T06:10:17;10.40;99.90
15930;DHT22;8064;51.142;4.780;2023-02-03T06:12:43;10.40;99.90
15930;DHT22;8064;51.142;4.780;2023-02-03T06:15:09;10.40;99.90
15930;DHT22;8064;51.142;4.780;2023-02-03T06:17:37;10.40;99.90
15930;DHT22;8064;51.142;4.780;2023-02-03T06:20:04;10.50;99.90
15930;DHT22;8064;51.142;4.780;2023-02-03T06:22:30;10.50;99.90
15930;DHT22;8064;51.142;4.780;2023-02-03T06:24:56;10.50;99.90
15930;DHT22;8064;51.142;4.780;2023-02-03T06:27:22;10.50;99.90
15930;DHT22;8064;51.142;4.780;2023-02-03T06:29:48;10.50;99.90
15930;DHT22;8064;51.142;4.780;2023-02-03T06:32:14;10.50;99.90
15930;DHT22;8064;51.142;4.780;2023-02-03T06:34:39;10.50;99.90
15930;DHT22;8064;51.142;4.780;2023-02-03T06:37:05;10.50;99.90
15930;DHT22;8064;51.142;4.780;2023-02-03T06:39:31;10.50;99.90
15930;DHT22;8064;51.142;4.780;2023-02-03T06:41:56;10.50;99.90
15930;DHT22;8064;51.142;4.780;2023-02-03T06:44:22;10.50;99.90
15930;DHT22;8064;51.142;4.780;2023-02-03T06:46:48;10.50;99.90
15930;DHT22;8064;51.142;4.780;2023-02-03T06:49:15;10.50;99.90
15930;DHT22;8064;51.142;4.780;2023-02-03T06:51:42;10.50;99.90
15930;DHT22;8064;51.142;4.780;2023-02-03T06:54:10;10.50;99.90
15930;DHT22;8064;51.142;4.780;2023-02-03T06:56:36;10.50;99.90
15930;DHT22;8064;51.142;4.780;2023-02-03T06:59:02;10.50;99.90
15930;DHT22;8064;51.142;4.780;2023-02-03T07:01:28;10.50;99.90
15930;DHT22;8064;51.142;4.780;2023-02-03T07:03:55;10.50;99.90
15930;DHT22;8064;51.142;4.780;2023-02-03T07:06:24;10.50;99.90
15930;DHT22;8064;51.142;4.780;2023-02-03T07:08:54;10.50;99.90
15930;DHT22;8064;51.142;4.780;2023-02-03T07:11:21;10.50;99.90
15930;DHT22;8064;51.142;4.780;2023-02-03T07:13:47;10.50;99.90
15930;DHT22;8064;51.142;4.780;2023-02-03T07:16:13;10.50;99.90
15930;DHT22;8064;51.142;4.780;2023-02-03T07:18:39;10.50;99.90
15930;DHT22;8064;51.142;4.780;2023-02-03T07:21:06;10.50;99.90
15930;DHT22;8064;51.142;4.780;2023-02-03T07:23:32;10.50;99.90
15930;DHT22;8064;51.142;4.780;2023-02-03T07:25:59;10.50;99.90
15930;DHT22;8064;51.142;4.780;2023-02-03T07:28:24;10.60;99.90
15930;DHT22;8064;51.142;4.780;2023-02-03T07:30:50;10.60;99.90
15930;DHT22;8064;51.142;4.780;2023-02-03T07:33:16;10.60;99.90
15930;DHT22;8064;51.142;4.780;2023-02-03T07:35:42;10.60;99.90
15930;DHT22;8064;51.142;4.780;2023-02-03T07:38:08;10.60;99.90
15930;DHT22;8064;51.142;4.780;2023-02-03T07:40:35;10.60;99.90
15930;DHT22;8064;51.142;4.780;2023-02-03T07:43:00;10.60;99.90
15930;DHT22;8064;51.142;4.780;2023-02-03T07:45:26;10.70;99.90
15930;DHT22;8064;51.142;4.780;2023-02-03T07:47:52;10.70;99.90
15930;DHT22;8064;51.142;4.780;2023-02-03T07:50:17;10.70;99.90
15930;DHT22;8064;51.142;4.780;2023-02-03T07:52:43;10.70;99.90
15930;DHT22;8064;51.142;4.780;2023-02-03T07:55:09;10.70;99.90
15930;DHT22;8064;51.142;4.780;2023-02-03T07:57:35;10.70;99.90
15930;DHT22;8064;51.142;4.780;2023-02-03T08:00:03;10.70;99.90
15930;DHT22;8064;51.142;4.780;2023-02-03T08:02:29;10.70;99.90
15930;DHT22;8064;51.142;4.780;2023-02-03T08:04:55;10.70;99.90
15930;DHT22;8064;51.142;4.780;2023-02-03T08:07:22;10.70;99.90
15930;DHT22;8064;51.142;4.780;2023-02-03T08:09:48;10.80;99.90
15930;DHT22;8064;51.142;4.780;2023-02-03T08:12:14;10.80;99.90
15930;DHT22;8064;51.142;4.780;2023-02-03T08:14:40;10.80;99.90
15930;DHT22;8064;51.142;4.780;2023-02-03T08:17:05;10.80;99.90
15930;DHT22;8064;51.142;4.780;2023-02-03T08:19:31;10.80;99.90
15930;DHT22;8064;51.142;4.780;2023-02-03T08:21:57;10.80;99.90
15930;DHT22;8064;51.142;4.780;2023-02-03T08:24:24;10.90;99.90
15930;DHT22;8064;51.142;4.780;2023-02-03T08:26:49;10.90;99.90
15930;DHT22;8064;51.142;4.780;2023-02-03T08:29:17;10.90;99.90
15930;DHT22;8064;51.142;4.780;2023-02-03T08:31:43;10.90;99.90
15930;DHT22;8064;51.142;4.780;2023-02-03T08:34:08;10.90;99.90
15930;DHT22;8064;51.142;4.780;2023-02-03T08:36:34;10.90;99.90
15930;DHT22;8064;51.142;4.780;2023-02-03T08:39:03;10.90;99.90
15930;DHT22;8064;51.142;4.780;2023-02-03T08:41:29;10.90;99.90
15930;DHT22;8064;51.142;4.780;2023-02-03T08:43:55;10.90;99.90
15930;DHT22;8064;51.142;4.780;2023-02-03T08:46:21;10.90;99.90
15930;DHT22;8064;51.142;4.780;2023-02-03T08:48:46;10.90;99.90
15930;DHT22;8064;51.142;4.780;2023-02-03T08:51:15;11.00;99.90
15930;DHT22;8064;51.142;4.780;2023-02-03T08:53:41;10.90;99.90
15930;DHT22;8064;51.142;4.780;2023-02-03T08:56:09;11.00;99.90
15930;DHT22;8064;51.142;4.780;2023-02-03T08:58:35;11.00;99.90
15930;DHT22;8064;51.142;4.780;2023-02-03T09:01:20;11.00;99.90
15930;DHT22;8064;51.142;4.780;2023-02-03T09:03:45;11.00;99.90
15930;DHT22;8064;51.142;4.780;2023-02-03T09:06:11;11.00;99.90
15930;DHT22;8064;51.142;4.780;2023-02-03T09:08:41;11.00;99.90
15930;DHT22;8064;51.142;4.780;2023-02-03T09:11:10;11.00;99.90
15930;DHT22;8064;51.142;4.780;2023-02-03T09:13:36;11.10;99.90
15930;DHT22;8064;51.142;4.780;2023-02-03T09:18:46;11.10;99.90
15930;DHT22;8064;51.142;4.780;2023-02-03T09:21:13;11.10;99.90
15930;DHT22;8064;51.142;4.780;2023-02-03T09:23:40;11.10;99.90
15930;DHT22;8064;51.142;4.780;2023-02-03T09:26:08;11.10;99.90
15930;DHT22;8064;51.142;4.780;2023-02-03T09:28:34;11.20;99.90
15930;DHT22;8064;51.142;4.780;2023-02-03T09:31:12;11.20;99.90
15930;DHT22;8064;51.142;4.780;2023-02-03T09:33:38;11.20;99.90
15930;DHT22;8064;51.142;4.780;2023-02-03T09:36:05;11.20;99.90
15930;DHT22;8064;51.142;4.780;2023-02-03T09:38:33;11.20;99.90
15930;DHT22;8064;51.142;4.780;2023-02-03T09:46:34;11.30;99.90
15930;DHT22;8064;51.142;4.780;2023-02-03T09:49:11;11.30;99.90
15930;DHT22;8064;51.142;4.780;2023-02-03T09:51:45;11.40;99.90
15930;DHT22;8064;51.142;4.780;2023-02-03T09:57:30;11.40;99.90
15930;DHT22;8064;51.142;4.780;2023-02-03T09:59:58;11.40;99.90
15930;DHT22;8064;51.142;4.780;2023-02-03T10:16:48;11.40;99.90
15930;DHT22;8064;51.142;4.780;2023-02-03T10:19:19;11.40;99.90
15930;DHT22;8064;51.142;4.780;2023-02-03T10:21:50;11.40;99.90
15930;DHT22;8064;51.142;4.780;2023-02-03T10:24:29;11.40;99.90
15930;DHT22;8064;51.142;4.780;2023-02-03T10:26:59;11.50;99.90
15930;DHT22;8064;51.142;4.780;2023-02-03T10:29:30;11.50;99.90
15930;DHT22;8064;51.142;4.780;2023-02-03T10:31:58;11.60;99.90
15930;DHT22;8064;51.142;4.780;2023-02-03T10:34:25;11.50;99.90
15930;DHT22;8064;51.142;4.780;2023-02-03T10:36:54;11.50;99.90
15930;DHT22;8064;51.142;4.780;2023-02-03T10:42:15;11.60;99.90
15930;DHT22;8064;51.142;4.780;2023-02-03T10:44:45;11.60;99.90
15930;DHT22;8064;51.142;4.780;2023-02-03T10:50:05;11.60;99.90
15930;DHT22;8064;51.142;4.780;2023-02-03T10:52:34;11.60;99.90
15930;DHT22;8064;51.142;4.780;2023-02-03T10:58:07;11.70;99.90
15930;DHT22;8064;51.142;4.780;2023-02-03T11:00:35;11.70;99.90
15930;DHT22;8064;51.142;4.780;2023-02-03T11:08:31;11.80;99.90
15930;DHT22;8064;51.142;4.780;2023-02-03T11:11:27;11.80;99.90
15930;DHT22;8064;51.142;4.780;2023-02-03T11:13:55;11.90;99.90
15930;DHT22;8064;51.142;4.780;2023-02-03T11:16:25;11.90;99.90
15930;DHT22;8064;51.142;4.780;2023-02-03T11:18:53;11.90;99.90
15930;DHT22;8064;51.142;4.780;2023-02-03T11:21:22;12.00;99.90
15930;DHT22;8064;51.142;4.780;2023-02-03T11:24:18;12.00;99.90
15930;DHT22;8064;51.142;4.780;2023-02-03T11:35:25;12.00;99.90
15930;DHT22;8064;51.142;4.780;2023-02-03T11:37:54;12.00;99.90
15930;DHT22;8064;51.142;4.780;2023-02-03T11:43:03;12.00;99.90
15930;DHT22;8064;51.142;4.780;2023-02-03T11:50:56;12.00;99.90
15930;DHT22;8064;51.142;4.780;2023-02-03T11:53:46;12.00;99.90
15930;DHT22;8064;51.142;4.780;2023-02-03T11:56:34;12.00;99.90
15930;DHT22;8064;51.142;4.780;2023-02-03T11:59:07;12.00;99.90
15930;DHT22;8064;51.142;4.780;2023-02-03T12:13:01;12.00;99.90
15930;DHT22;8064;51.142;4.780;2023-02-03T12:15:55;12.00;99.90
15930;DHT22;8064;51.142;4.780;2023-02-03T12:18:48;12.00;99.90
15930;DHT22;8064;51.142;4.780;2023-02-03T12:27:24;12.00;99.90
15930;DHT22;8064;51.142;4.780;2023-02-03T12:29:57;12.10;99.90
15930;DHT22;8064;51.142;4.780;2023-02-03T12:32:48;12.10;99.90
15930;DHT22;8064;51.142;4.780;2023-02-03T12:45:50;12.00;99.90
15930;DHT22;8064;51.142;4.780;2023-02-03T12:48:19;12.00;99.90
15930;DHT22;8064;51.142;4.780;2023-02-03T12:50:48;12.00;99.90
15930;DHT22;8064;51.142;4.780;2023-02-03T12:53:34;12.00;99.90
15930;DHT22;8064;51.142;4.780;2023-02-03T12:58:58;12.10;99.90
15930;DHT22;8064;51.142;4.780;2023-02-03T13:01:30;12.10;99.90
15930;DHT22;8064;51.142;4.780;2023-02-03T13:04:07;12.10;99.90
15930;DHT22;8064;51.142;4.780;2023-02-03T13:06:43;12.20;99.90
15930;DHT22;8064;51.142;4.780;2023-02-03T13:09:36;12.20;99.90
15930;DHT22;8064;51.142;4.780;2023-02-03T13:12:19;12.20;99.90
15930;DHT22;8064;51.142;4.780;2023-02-03T13:15:05;12.20;99.90
15930;DHT22;8064;51.142;4.780;2023-02-03T13:17:53;12.20;99.90
15930;DHT22;8064;51.142;4.780;2023-02-03T13:20:24;12.20;99.90
15930;DHT22;8064;51.142;4.780;2023-02-03T13:22:51;12.10;99.90
15930;DHT22;8064;51.142;4.780;2023-02-03T13:28:01;12.10;99.90
15930;DHT22;8064;51.142;4.780;2023-02-03T13:30:49;12.10;99.90
15930;DHT22;8064;51.142;4.780;2023-02-03T13:33:26;12.10;99.90
15930;DHT22;8064;51.142;4.780;2023-02-03T13:36:07;12.10;99.90
15930;DHT22;8064;51.142;4.780;2023-02-03T13:44:04;12.00;99.90
15930;DHT22;8064;51.142;4.780;2023-02-03T13:46:33;12.00;99.90
15930;DHT22;8064;51.142;4.780;2023-02-03T13:49:02;12.00;99.90
15930;DHT22;8064;51.142;4.780;2023-02-03T13:51:33;12.00;99.90
15930;DHT22;8064;51.142;4.780;2023-02-03T13:54:06;12.00;99.90
15930;DHT22;8064;51.142;4.780;2023-02-03T13:56:33;12.00;99.90
15930;DHT22;8064;51.142;4.780;2023-02-03T14:01:39;12.00;99.90
15930;DHT22;8064;51.142;4.780;2023-02-03T14:04:07;12.00;99.90
15930;DHT22;8064;51.142;4.780;2023-02-03T14:09:02;12.00;99.90
15930;DHT22;8064;51.142;4.780;2023-02-03T14:11:44;12.00;99.90
15930;DHT22;8064;51.142;4.780;2023-02-03T14:16:39;12.00;99.90
15930;DHT22;8064;51.142;4.780;2023-02-03T14:22:08;12.00;99.90
15930;DHT22;8064;51.142;4.780;2023-02-03T14:24:43;12.00;99.90
15930;DHT22;8064;51.142;4.780;2023-02-03T14:27:30;12.00;99.90
15930;DHT22;8064;51.142;4.780;2023-02-03T14:30:09;12.10;99.90
15930;DHT22;8064;51.142;4.780;2023-02-03T14:32:55;12.10;99.90
15930;DHT22;8064;51.142;4.780;2023-02-03T14:35:30;12.10;99.90
15930;DHT22;8064;51.142;4.780;2023-02-03T14:38:16;12.10;99.90
15930;DHT22;8064;51.142;4.780;2023-02-03T14:46:20;12.10;99.90
15930;DHT22;8064;51.142;4.780;2023-02-03T15:00:29;12.10;99.90
15930;DHT22;8064;51.142;4.780;2023-02-03T15:05:54;12.10;99.90
15930;DHT22;8064;51.142;4.780;2023-02-03T15:08:40;12.10;99.90
15930;DHT22;8064;51.142;4.780;2023-02-03T15:11:27;12.10;99.90
15930;DHT22;8064;51.142;4.780;2023-02-03T15:13:55;12.20;99.90
15930;DHT22;8064;51.142;4.780;2023-02-03T15:16:23;12.10;99.90
15930;DHT22;8064;51.142;4.780;2023-02-03T15:19:01;12.20;99.90
15930;DHT22;8064;51.142;4.780;2023-02-03T15:21:40;12.20;99.90
15930;DHT22;8064;51.142;4.780;2023-02-03T15:24:13;12.20;99.90
15930;DHT22;8064;51.142;4.780;2023-02-03T15:26:45;12.20;99.90
15930;DHT22;8064;51.142;4.780;2023-02-03T15:29:19;12.20;99.90
15930;DHT22;8064;51.142;4.780;2023-02-03T15:31:51;12.20;99.90
15930;DHT22;8064;51.142;4.780;2023-02-03T15:34:25;12.20;99.90
15930;DHT22;8064;51.142;4.780;2023-02-03T15:36:54;12.20;99.90
15930;DHT22;8064;51.142;4.780;2023-02-03T15:42:16;12.20;99.90
15930;DHT22;8064;51.142;4.780;2023-02-03T15:44:51;12.30;99.90
15930;DHT22;8064;51.142;4.780;2023-02-03T15:52:41;12.20;99.90
15930;DHT22;8064;51.142;4.780;2023-02-03T15:55:16;12.20;99.90
15930;DHT22;8064;51.142;4.780;2023-02-03T15:57:43;12.20;99.90
15930;DHT22;8064;51.142;4.780;2023-02-03T16:00:31;12.10;99.90
15930;DHT22;8064;51.142;4.780;2023-02-03T16:02:59;12.10;99.90
15930;DHT22;8064;51.142;4.780;2023-02-03T16:05:30;12.10;99.90
15930;DHT22;8064;51.142;4.780;2023-02-03T16:07:57;12.10;99.90
15930;DHT22;8064;51.142;4.780;2023-02-03T16:10:42;12.00;99.90
15930;DHT22;8064;51.142;4.780;2023-02-03T16:13:18;12.00;99.90
15930;DHT22;8064;51.142;4.780;2023-02-03T16:16:03;12.00;99.90
15930;DHT22;8064;51.142;4.780;2023-02-03T16:18:34;11.90;99.90
15930;DHT22;8064;51.142;4.780;2023-02-03T16:21:02;11.90;99.90
15930;DHT22;8064;51.142;4.780;2023-02-03T16:23:28;11.90;99.90
15930;DHT22;8064;51.142;4.780;2023-02-03T16:29:10;11.80;99.90
15930;DHT22;8064;51.142;4.780;2023-02-03T16:31:55;11.80;99.90
15930;DHT22;8064;51.142;4.780;2023-02-03T16:34:40;11.80;99.90
15930;DHT22;8064;51.142;4.780;2023-02-03T16:37:43;11.80;99.90
15930;DHT22;8064;51.142;4.780;2023-02-03T16:40:27;11.80;99.90
15930;DHT22;8064;51.142;4.780;2023-02-03T16:43:13;11.80;99.90
15930;DHT22;8064;51.142;4.780;2023-02-03T16:45:58;11.80;99.90
15930;DHT22;8064;51.142;4.780;2023-02-03T16:48:43;11.80;99.90
15930;DHT22;8064;51.142;4.780;2023-02-03T16:51:36;11.90;99.90
15930;DHT22;8064;51.142;4.780;2023-02-03T16:54:02;11.80;99.90
15930;DHT22;8064;51.142;4.780;2023-02-03T16:56:28;11.80;99.90
15930;DHT22;8064;51.142;4.780;2023-02-03T16:58:53;11.80;99.90
15930;DHT22;8064;51.142;4.780;2023-02-03T17:01:19;11.80;99.90
15930;DHT22;8064;51.142;4.780;2023-02-03T17:03:45;11.80;99.90
15930;DHT22;8064;51.142;4.780;2023-02-03T17:06:11;11.80;99.90
15930;DHT22;8064;51.142;4.780;2023-02-03T17:08:39;11.80;99.90
15930;DHT22;8064;51.142;4.780;2023-02-03T17:11:08;11.80;99.90
15930;DHT22;8064;51.142;4.780;2023-02-03T17:13:39;11.80;99.90
15930;DHT22;8064;51.142;4.780;2023-02-03T17:16:09;11.90;99.90
15930;DHT22;8064;51.142;4.780;2023-02-03T17:18:35;11.80;99.90
15930;DHT22;8064;51.142;4.780;2023-02-03T17:24:01;11.80;99.90
15930;DHT22;8064;51.142;4.780;2023-02-03T17:26:27;11.80;99.90
15930;DHT22;8064;51.142;4.780;2023-02-03T17:28:53;11.70;99.90
15930;DHT22;8064;51.142;4.780;2023-02-03T17:31:19;11.70;99.90
15930;DHT22;8064;51.142;4.780;2023-02-03T17:33:49;11.70;99.90
15930;DHT22;8064;51.142;4.780;2023-02-03T17:36:17;11.70;99.90
15930;DHT22;8064;51.142;4.780;2023-02-03T17:38:46;11.70;99.90
15930;DHT22;8064;51.142;4.780;2023-02-03T17:41:15;11.70;99.90
15930;DHT22;8064;51.142;4.780;2023-02-03T17:43:41;11.70;99.90
15930;DHT22;8064;51.142;4.780;2023-02-03T17:46:08;11.60;99.90
15930;DHT22;8064;51.142;4.780;2023-02-03T17:48:35;11.70;99.90
15930;DHT22;8064;51.142;4.780;2023-02-03T17:51:21;11.60;99.90
15930;DHT22;8064;51.142;4.780;2023-02-03T17:53:49;11.60;99.90
15930;DHT22;8064;51.142;4.780;2023-02-03T17:56:18;11.60;99.90
15930;DHT22;8064;51.142;4.780;2023-02-03T17:58:44;11.60;99.90
15930;DHT22;8064;51.142;4.780;2023-02-03T18:01:14;11.60;99.90
15930;DHT22;8064;51.142;4.780;2023-02-03T18:03:45;11.50;99.90
15930;DHT22;8064;51.142;4.780;2023-02-03T18:06:12;11.50;99.90
15930;DHT22;8064;51.142;4.780;2023-02-03T18:08:39;11.50;99.90
15930;DHT22;8064;51.142;4.780;2023-02-03T18:11:06;11.50;99.90
15930;DHT22;8064;51.142;4.780;2023-02-03T18:13:35;11.50;99.90
15930;DHT22;8064;51.142;4.780;2023-02-03T18:16:02;11.50;99.90
15930;DHT22;8064;51.142;4.780;2023-02-03T18:18:28;11.50;99.90
15930;DHT22;8064;51.142;4.780;2023-02-03T18:20:54;11.50;99.90
15930;DHT22;8064;51.142;4.780;2023-02-03T18:23:20;11.50;99.90
15930;DHT22;8064;51.142;4.780;2023-02-03T18:25:56;11.50;99.90
15930;DHT22;8064;51.142;4.780;2023-02-03T18:28:22;11.50;99.90
15930;DHT22;8064;51.142;4.780;2023-02-03T18:30:49;11.50;99.90
15930;DHT22;8064;51.142;4.780;2023-02-03T18:33:15;11.50;99.90
15930;DHT22;8064;51.142;4.780;2023-02-03T18:35:41;11.50;99.90
15930;DHT22;8064;51.142;4.780;2023-02-03T18:38:08;11.50;99.90
15930;DHT22;8064;51.142;4.780;2023-02-03T18:40:35;11.50;99.90
15930;DHT22;8064;51.142;4.780;2023-02-03T18:43:01;11.50;99.90
15930;DHT22;8064;51.142;4.780;2023-02-03T18:45:28;11.50;99.90
15930;DHT22;8064;51.142;4.780;2023-02-03T18:47:54;11.50;99.90
15930;DHT22;8064;51.142;4.780;2023-02-03T18:50:20;11.50;99.90
15930;DHT22;8064;51.142;4.780;2023-02-03T18:52:45;11.50;99.90
15930;DHT22;8064;51.142;4.780;2023-02-03T18:55:11;11.50;99.90
15930;DHT22;8064;51.142;4.780;2023-02-03T18:57:38;11.50;99.90
15930;DHT22;8064;51.142;4.780;2023-02-03T19:00:05;11.50;99.90
15930;DHT22;8064;51.142;4.780;2023-02-03T19:02:32;11.50;99.90